createdAt,value
2022-08-04T00:00:31.615Z,100574.91
2022-08-04T00:03:16.424Z,100574.06
2022-08-04T00:06:03.613Z,100575.84
2022-08-04T00:08:58.419Z,100575.00
2022-08-04T00:11:31.471Z,100581.22
2022-08-04T00:14:11.254Z,100587.59
2022-08-04T00:16:40.870Z,100575.06
2022-08-04T00:19:31.946Z,100575.13
2022-08-04T00:22:05.295Z,100580.41
2022-08-04T00:24:34.000Z,100585.88
2022-08-04T00:27:01.491Z,100576.97
2022-08-04T00:29:29.238Z,100586.56
2022-08-04T00:31:57.921Z,100577.84
2022-08-04T00:34:31.415Z,100582.31
2022-08-04T00:36:58.801Z,100585.06
2022-08-04T00:39:26.985Z,100578.78
2022-08-04T00:42:18.141Z,100575.25
2022-08-04T00:45:22.532Z,100582.34
2022-08-04T00:48:12.911Z,100579.69
2022-08-04T00:50:50.519Z,100584.19
2022-08-04T00:53:53.211Z,100585.06
2022-08-04T00:56:49.288Z,100577.84
2022-08-04T00:59:42.397Z,100580.69
2022-08-04T01:02:35.331Z,100582.47
2022-08-04T01:05:40.079Z,100586.97
2022-08-04T01:08:28.529Z,100588.72
2022-08-04T01:11:56.887Z,100588.75
2022-08-04T01:15:01.147Z,100587.94
2022-08-04T01:18:07.637Z,100595.06
2022-08-04T01:21:06.808Z,100599.53
2022-08-04T01:24:17.177Z,100595.06
2022-08-04T01:27:09.614Z,100602.28
2022-08-04T01:29:50.143Z,100599.63
2022-08-04T01:32:32.307Z,100597.66
2022-08-04T01:35:47.192Z,100599.44
2022-08-04T01:38:37.527Z,100603.19
2022-08-04T01:41:07.925Z,100601.47
2022-08-04T01:43:40.794Z,100602.28
2022-08-04T01:46:14.225Z,100600.50
2022-08-04T01:48:51.249Z,100600.56
2022-08-04T01:51:22.037Z,100600.66
2022-08-04T01:53:49.043Z,100593.50
2022-08-04T01:56:17.221Z,100595.06
2022-08-04T01:58:44.208Z,100596.00
2022-08-04T02:01:13.650Z,100586.28
2022-08-04T02:04:21.272Z,100592.50
2022-08-04T02:06:44.356Z,100598.75
2022-08-04T02:09:30.446Z,100597.00
2022-08-04T02:12:52.143Z,100574.78
2022-08-04T02:16:17.306Z,100593.47
2022-08-04T02:19:00.271Z,100588.03
2022-08-04T02:21:42.524Z,100582.72
2022-08-04T02:24:16.353Z,100584.53
2022-08-04T02:26:50.385Z,100568.50
2022-08-04T02:29:40.586Z,100582.75
2022-08-04T02:32:22.210Z,100577.41
2022-08-04T02:34:54.724Z,100578.31
2022-08-04T02:37:24.336Z,100579.22
2022-08-04T02:39:54.374Z,100572.81
2022-08-04T02:42:22.748Z,100578.22
2022-08-04T02:44:51.953Z,100577.22
2022-08-04T02:47:22.330Z,100575.50
2022-08-04T02:49:51.989Z,100570.22
2022-08-04T02:52:21.138Z,100571.09
2022-08-04T02:54:53.413Z,100569.25
2022-08-04T02:57:26.879Z,100572.75
2022-08-04T03:00:20.421Z,100576.56
2022-08-04T03:03:26.489Z,100586.47
2022-08-04T03:06:44.519Z,100581.06
2022-08-04T03:09:48.245Z,100583.63
2022-08-04T03:12:59.092Z,100582.81
2022-08-04T03:16:08.311Z,100584.53
2022-08-04T03:19:43.445Z,100587.28
2022-08-04T03:23:12.061Z,100583.59
2022-08-04T03:26:04.545Z,100586.19
2022-08-04T03:29:36.105Z,100591.63
2022-08-04T03:33:13.493Z,100594.31
2022-08-04T03:36:08.918Z,100592.41
2022-08-04T03:39:03.466Z,100596.44
2022-08-04T03:42:03.998Z,100595.09
2022-08-04T03:45:23.195Z,100598.06
2022-08-04T03:48:27.863Z,100595.50
2022-08-04T03:51:53.109Z,100593.84
2022-08-04T03:55:16.795Z,100611.38
2022-08-04T03:58:40.765Z,100598.44
2022-08-04T04:02:02.904Z,100599.03
2022-08-04T04:05:01.041Z,100609.56
2022-08-04T04:08:01.729Z,100601.84
2022-08-04T04:10:49.333Z,100610.84
2022-08-04T04:13:42.030Z,100605.03
2022-08-04T04:16:17.499Z,100612.41
2022-08-04T04:19:31.636Z,100611.84
2022-08-04T04:22:13.137Z,100613.81
2022-08-04T04:25:03.100Z,100613.22
2022-08-04T04:28:44.525Z,100617.09
2022-08-04T04:31:15.913Z,100625.56
2022-08-04T04:34:17.011Z,100627.00
2022-08-04T04:36:46.712Z,100622.59
2022-08-04T04:39:20.412Z,100629.59
2022-08-04T04:42:17.291Z,100619.72
2022-08-04T04:45:05.875Z,100624.72
2022-08-04T04:48:07.191Z,100622.84
2022-08-04T04:51:16.444Z,100625.03
2022-08-04T04:54:01.275Z,100625.59
2022-08-04T04:56:58.002Z,100623.56
2022-08-04T04:59:33.810Z,100628.53
2022-08-04T05:02:31.318Z,100627.59
2022-08-04T05:05:19.767Z,100635.59
2022-08-04T05:07:46.690Z,100643.97
2022-08-04T05:10:50.460Z,100646.09
2022-08-04T05:14:37.034Z,100632.44
2022-08-04T05:16:55.630Z,100632.13
2022-08-04T05:20:01.185Z,100636.25
2022-08-04T05:22:54.259Z,100636.84
2022-08-04T05:25:59.535Z,100622.97
2022-08-04T05:28:45.431Z,100630.72
2022-08-04T05:31:20.196Z,100629.22
2022-08-04T05:34:00.775Z,100629.69
2022-08-04T05:36:46.611Z,100633.19
2022-08-04T05:39:34.151Z,100629.31
2022-08-04T05:42:04.702Z,100634.75
2022-08-04T05:44:33.916Z,100633.28
2022-08-04T05:47:04.290Z,100636.31
2022-08-04T05:49:32.878Z,100620.84
2022-08-04T05:52:05.053Z,100641.47
2022-08-04T05:54:35.411Z,100641.81
2022-08-04T05:57:08.681Z,100648.84
2022-08-04T05:59:42.311Z,100646.53
2022-08-04T06:02:10.482Z,100647.25
2022-08-04T06:04:43.561Z,100650.28
2022-08-04T06:07:11.417Z,100647.72
2022-08-04T06:09:38.672Z,100656.16
2022-08-04T06:12:14.627Z,100661.69
2022-08-04T06:14:47.760Z,100668.06
2022-08-04T06:18:35.217Z,100659.53
2022-08-04T06:20:19.245Z,100658.38
2022-08-04T06:22:54.567Z,100651.25
2022-08-04T06:25:29.679Z,100651.59
2022-08-04T06:27:58.004Z,100659.69
2022-08-04T06:30:28.424Z,100664.72
2022-08-04T06:33:03.381Z,100660.03
2022-08-04T06:35:33.237Z,100651.88
2022-08-04T06:38:01.939Z,100663.13
2022-08-04T06:40:33.329Z,100654.97
2022-08-04T06:43:07.278Z,100666.47
2022-08-04T06:45:37.407Z,100666.78
2022-08-04T06:48:06.839Z,100661.59
2022-08-04T06:51:31.439Z,100657.09
2022-08-04T06:53:26.205Z,100665.16
2022-08-04T06:55:55.829Z,100651.97
2022-08-04T06:58:24.719Z,100656.03
2022-08-04T07:00:52.983Z,100656.00
2022-08-04T07:03:22.079Z,100652.38
2022-08-04T07:05:51.238Z,100650.41
2022-08-04T07:08:19.201Z,100651.94
2022-08-04T07:10:46.991Z,100652.91
2022-08-04T07:13:14.685Z,100649.31
2022-08-04T07:15:46.743Z,100653.56
2022-08-04T07:18:13.952Z,100649.41
2022-08-04T07:20:43.701Z,100644.69
2022-08-04T07:23:17.455Z,100646.06
2022-08-04T07:25:59.022Z,100643.09
2022-08-04T07:28:30.970Z,100657.13
2022-08-04T07:30:58.900Z,100652.56
2022-08-04T07:33:26.153Z,100649.44
2022-08-04T07:36:08.353Z,100655.56
2022-08-04T07:38:48.284Z,100640.66
2022-08-04T07:41:43.294Z,100657.84
2022-08-04T07:44:15.756Z,100650.97
2022-08-04T07:46:45.692Z,100653.78
2022-08-04T07:49:12.924Z,100653.94
2022-08-04T07:52:01.913Z,100648.88
2022-08-04T07:54:29.336Z,100654.41
2022-08-04T07:56:56.840Z,100651.25
2022-08-04T07:59:24.944Z,100652.13
2022-08-04T08:01:53.226Z,100643.84
2022-08-04T08:04:21.924Z,100650.03
2022-08-04T08:06:49.063Z,100635.06
2022-08-04T08:09:24.026Z,100640.28
2022-08-04T08:12:38.285Z,100636.28
2022-08-04T08:14:41.325Z,100643.28
2022-08-04T08:17:08.470Z,100646.91
2022-08-04T08:19:36.265Z,100644.59
2022-08-04T08:22:04.485Z,100639.59
2022-08-04T08:24:36.024Z,100642.69
2022-08-04T08:27:04.910Z,100644.22
2022-08-04T08:29:35.254Z,100641.97
2022-08-04T08:32:08.871Z,100646.41
2022-08-04T08:34:38.025Z,100637.03
2022-08-04T08:37:30.881Z,100637.09
2022-08-04T08:40:46.678Z,100639.84
2022-08-04T08:44:30.124Z,100646.50
2022-08-04T08:48:05.240Z,100648.75
2022-08-04T08:50:51.131Z,100641.06
2022-08-04T08:54:08.547Z,100647.09
2022-08-04T08:57:00.451Z,100647.41
2022-08-04T08:59:53.555Z,100644.38
2022-08-04T09:03:04.543Z,100646.28
2022-08-04T09:05:43.871Z,100650.97
2022-08-04T09:08:55.656Z,100647.59
2022-08-04T09:11:48.444Z,100646.84
2022-08-04T09:14:26.159Z,100644.38
2022-08-04T09:17:03.084Z,100638.94
2022-08-04T09:19:45.892Z,100636.91
2022-08-04T09:22:45.081Z,100637.22
2022-08-04T09:25:18.558Z,100637.88
2022-08-04T09:27:55.681Z,100639.34
2022-08-04T09:30:36.950Z,100633.28
2022-08-04T09:33:45.816Z,100637.94
2022-08-04T09:36:37.414Z,100643.84
2022-08-04T09:39:37.534Z,100639.97
2022-08-04T09:42:33.834Z,100626.38
2022-08-04T09:45:26.572Z,100632.75
2022-08-04T09:48:44.495Z,100625.78
2022-08-04T09:51:57.934Z,100634.41
2022-08-04T09:54:44.459Z,100634.88
2022-08-04T09:57:41.776Z,100624.94
2022-08-04T10:00:13.630Z,100634.06
2022-08-04T10:02:49.594Z,100627.75
2022-08-04T10:05:38.806Z,100639.03
2022-08-04T10:08:44.471Z,100635.09
2022-08-04T10:11:54.509Z,100627.25
2022-08-04T10:15:06.734Z,100626.28
2022-08-04T10:18:24.809Z,100629.13
2022-08-04T10:21:14.855Z,100629.88
2022-08-04T10:24:15.126Z,100627.28
2022-08-04T10:27:08.135Z,100624.81
2022-08-04T10:29:44.747Z,100629.72
2022-08-04T10:32:43.941Z,100618.72
2022-08-04T10:35:24.173Z,100611.41
2022-08-04T10:38:13.422Z,100613.03
2022-08-04T10:40:48.351Z,100608.28
2022-08-04T10:44:00.259Z,100605.31
2022-08-04T10:46:57.558Z,100598.16
2022-08-04T10:49:30.489Z,100599.25
2022-08-04T10:52:33.906Z,100596.72
2022-08-04T10:56:06.450Z,100595.03
2022-08-04T10:58:47.721Z,100589.31
2022-08-04T11:01:50.674Z,100589.03
2022-08-04T11:04:47.595Z,100598.38
2022-08-04T11:07:17.167Z,100587.69
2022-08-04T11:09:45.393Z,100589.88
2022-08-04T11:12:25.613Z,100588.31
2022-08-04T11:15:18.816Z,100587.81
2022-08-04T11:17:55.411Z,100577.34
2022-08-04T11:20:43.672Z,100581.38
2022-08-04T11:23:22.183Z,100584.16
2022-08-04T11:26:15.662Z,100578.03
2022-08-04T11:29:09.505Z,100581.97
2022-08-04T11:31:41.758Z,100580.66
2022-08-04T11:34:20.096Z,100578.34
2022-08-04T11:37:00.409Z,100566.28
2022-08-04T11:39:56.049Z,100565.47
2022-08-04T11:42:33.969Z,100569.16
2022-08-04T11:45:08.072Z,100570.44
2022-08-04T11:48:17.228Z,100572.63
2022-08-04T11:50:53.952Z,100566.56
2022-08-04T11:53:25.466Z,100582.50
2022-08-04T11:56:07.791Z,100573.19
2022-08-04T11:58:38.103Z,100581.38
2022-08-04T12:02:02.702Z,100577.06
2022-08-04T12:05:00.352Z,100565.19
2022-08-04T12:07:41.960Z,100568.59
2022-08-04T12:10:41.855Z,100565.72
2022-08-04T12:13:42.080Z,100570.25
2022-08-04T12:16:11.853Z,100562.66
2022-08-04T12:18:45.729Z,100566.72
2022-08-04T12:21:35.097Z,100570.34
2022-08-04T12:24:08.645Z,100559.13
2022-08-04T12:26:42.927Z,100557.16
2022-08-04T12:29:15.208Z,100564.75
2022-08-04T12:31:51.122Z,100559.22
2022-08-04T12:34:35.446Z,100560.41
2022-08-04T12:37:47.538Z,100554.84
2022-08-04T12:40:30.605Z,100550.81
2022-08-04T12:43:11.537Z,100546.59
2022-08-04T12:45:48.967Z,100546.34
2022-08-04T12:48:21.386Z,100536.38
2022-08-04T12:50:56.839Z,100540.09
2022-08-04T12:53:51.121Z,100545.78
2022-08-04T12:56:28.425Z,100537.44
2022-08-04T12:59:06.273Z,100539.84
2022-08-04T13:02:08.920Z,100531.81
2022-08-04T13:04:38.311Z,100531.91
2022-08-04T13:07:15.323Z,100533.19
2022-08-04T13:09:43.483Z,100524.25
2022-08-04T13:12:32.882Z,100532.06
2022-08-04T13:15:18.611Z,100523.16
2022-08-04T13:18:04.328Z,100534.28
2022-08-04T13:20:35.519Z,100531.22
2022-08-04T13:23:15.184Z,100522.88
2022-08-04T13:26:43.810Z,100513.22
2022-08-04T13:28:44.998Z,100505.75
2022-08-04T13:31:26.702Z,100515.72
2022-08-04T13:34:08.192Z,100517.91
2022-08-04T13:36:48.081Z,100503.28
2022-08-04T13:39:19.969Z,100503.06
2022-08-04T13:41:54.467Z,100509.09
2022-08-04T13:44:31.765Z,100504.03
2022-08-04T13:47:14.149Z,100502.88
2022-08-04T13:49:54.531Z,100508.59
2022-08-04T13:52:28.347Z,100489.34
2022-08-04T13:54:55.333Z,100499.69
2022-08-04T13:57:32.075Z,100496.34
2022-08-04T14:00:08.831Z,100491.81
2022-08-04T14:03:19.089Z,100494.22
2022-08-04T14:06:35.158Z,100490.31
2022-08-04T14:09:21.460Z,100476.59
2022-08-04T14:12:12.614Z,100480.72
2022-08-04T14:14:53.923Z,100485.28
2022-08-04T14:17:30.211Z,100482.78
2022-08-04T14:20:01.180Z,100476.28
2022-08-04T14:22:29.059Z,100486.38
2022-08-04T14:25:15.418Z,100475.91
2022-08-04T14:27:57.323Z,100473.41
2022-08-04T14:30:38.079Z,100472.75
2022-08-04T14:34:03.819Z,100465.63
2022-08-04T14:36:04.238Z,100468.03
2022-08-04T14:38:48.171Z,100462.03
2022-08-04T14:41:17.178Z,100465.06
2022-08-04T14:43:49.227Z,100447.72
2022-08-04T14:46:16.581Z,100476.78
2022-08-04T14:49:13.018Z,100463.03
2022-08-04T14:51:55.190Z,100465.53
2022-08-04T14:54:34.637Z,100471.56
2022-08-04T14:57:06.273Z,100459.03
2022-08-04T14:59:58.977Z,100457.13
2022-08-04T15:02:29.822Z,100457.91
2022-08-04T15:04:58.896Z,100446.53
2022-08-04T15:07:26.905Z,100466.84
2022-08-04T15:09:54.855Z,100458.94
2022-08-04T15:12:22.713Z,100461.75
2022-08-04T15:14:50.020Z,100463.78
2022-08-04T15:17:29.848Z,100454.22
2022-08-04T15:19:58.367Z,100449.44
2022-08-04T15:22:25.608Z,100452.22
2022-08-04T15:24:55.378Z,100459.66
2022-08-04T15:27:29.904Z,100451.13
2022-08-04T15:30:09.825Z,100451.41
2022-08-04T15:32:41.718Z,100448.00
2022-08-04T15:35:23.279Z,100445.69
2022-08-04T15:38:15.217Z,100436.22
2022-08-04T15:41:01.868Z,100441.91
2022-08-04T15:43:59.341Z,100443.59
2022-08-04T15:46:49.616Z,100445.59
2022-08-04T15:49:22.766Z,100440.81
2022-08-04T15:52:04.842Z,100445.25
2022-08-04T15:54:42.351Z,100439.53
2022-08-04T15:58:01.530Z,100445.97
2022-08-04T16:00:28.849Z,100436.25
2022-08-04T16:02:56.070Z,100449.25
2022-08-04T16:05:23.489Z,100447.94
2022-08-04T16:08:13.026Z,100451.75
2022-08-04T16:10:43.614Z,100444.19
2022-08-04T16:13:23.531Z,100439.09
2022-08-04T16:16:03.207Z,100444.88
2022-08-04T16:18:30.652Z,100435.63
2022-08-04T16:21:08.580Z,100438.00
2022-08-04T16:23:56.841Z,100436.59
2022-08-04T16:26:45.406Z,100440.47
2022-08-04T16:29:34.526Z,100440.19
2022-08-04T16:32:18.426Z,100441.63
2022-08-04T16:35:04.238Z,100427.03
2022-08-04T16:37:40.695Z,100428.19
2022-08-04T16:40:39.556Z,100425.56
2022-08-04T16:43:15.616Z,100426.66
2022-08-04T16:46:05.114Z,100415.34
2022-08-04T16:48:35.009Z,100417.41
2022-08-04T16:51:06.759Z,100422.31
2022-08-04T16:54:02.663Z,100430.91
2022-08-04T16:56:37.455Z,100427.91
2022-08-04T16:59:13.233Z,100434.44
2022-08-04T17:01:48.121Z,100424.31
2022-08-04T17:04:15.675Z,100426.84
2022-08-04T17:06:46.361Z,100433.59
2022-08-04T17:09:18.918Z,100430.66
2022-08-04T17:11:48.345Z,100432.06
2022-08-04T17:14:26.463Z,100436.22
2022-08-04T17:16:57.045Z,100423.13
2022-08-04T17:19:26.396Z,100429.69
2022-08-04T17:22:06.081Z,100428.31
2022-08-04T17:24:40.673Z,100432.16
2022-08-04T17:28:09.616Z,100422.66
2022-08-04T17:29:55.757Z,100438.09
2022-08-04T17:32:23.919Z,100433.16
2022-08-04T17:34:55.208Z,100440.63
2022-08-04T17:37:39.169Z,100436.44
2022-08-04T17:40:18.270Z,100430.34
2022-08-04T17:44:04.811Z,100440.09
2022-08-04T17:46:41.281Z,100435.91
2022-08-04T17:49:16.592Z,100438.25
2022-08-04T17:52:04.931Z,100444.16
2022-08-04T17:57:23.713Z,100445.59
2022-08-04T17:59:59.159Z,100445.63
2022-08-04T18:02:32.266Z,100441.28
2022-08-04T18:05:12.360Z,100444.81
2022-08-04T18:08:41.416Z,100442.38
2022-08-04T18:10:51.669Z,100456.94
2022-08-04T18:13:22.072Z,100454.31
2022-08-04T18:15:51.276Z,100459.66
2022-08-04T18:18:23.602Z,100460.38
2022-08-04T18:20:51.030Z,100468.84
2022-08-04T18:23:18.072Z,100455.41
2022-08-04T18:25:51.166Z,100457.44
2022-08-04T18:28:22.677Z,100467.44
2022-08-04T18:30:55.423Z,100464.66
2022-08-04T18:33:39.642Z,100455.97
2022-08-04T18:36:33.963Z,100468.75
2022-08-04T18:42:04.248Z,100472.53
2022-08-04T18:44:32.782Z,100470.53
2022-08-04T18:47:22.226Z,100469.97
2022-08-04T18:52:45.269Z,100467.09
2022-08-04T18:55:55.416Z,100467.50
2022-08-04T18:58:06.119Z,100469.31
2022-08-04T19:00:34.951Z,100473.88
2022-08-04T19:03:02.585Z,100467.69
2022-08-04T19:05:37.999Z,100470.38
2022-08-04T19:08:32.486Z,100478.59
2022-08-04T19:10:59.881Z,100478.59
2022-08-04T19:13:29.689Z,100478.63
2022-08-04T19:16:02.105Z,100477.84
2022-08-04T19:18:31.108Z,100483.16
2022-08-04T19:20:59.299Z,100477.94
2022-08-04T19:24:27.956Z,100483.44
2022-08-04T19:26:28.051Z,100474.47
2022-08-04T19:28:56.128Z,100477.38
2022-08-04T19:31:28.164Z,100474.94
2022-08-04T19:34:08.448Z,100486.31
2022-08-04T19:36:36.052Z,100490.09
2022-08-04T19:39:11.544Z,100481.34
2022-08-04T19:42:04.552Z,100476.69
2022-08-04T19:44:29.879Z,100484.81
2022-08-04T19:47:00.858Z,100486.94
2022-08-04T19:50:04.697Z,100476.31
2022-08-04T19:52:34.098Z,100474.94
2022-08-04T19:55:10.717Z,100477.44
2022-08-04T19:57:46.089Z,100483.97
2022-08-04T20:00:14.317Z,100479.59
2022-08-04T20:02:42.357Z,100476.53
2022-08-04T20:05:09.673Z,100475.72
2022-08-04T20:07:37.001Z,100469.75
2022-08-04T20:10:07.613Z,100468.19
2022-08-04T20:12:42.186Z,100481.63
2022-08-04T20:15:11.046Z,100484.22
2022-08-04T20:18:07.685Z,100485.56
2022-08-04T20:20:29.357Z,100489.13
2022-08-04T20:22:56.351Z,100496.38
2022-08-04T20:25:36.650Z,100496.50
2022-08-04T20:28:05.304Z,100487.28
2022-08-04T20:30:35.584Z,100497.16
2022-08-04T20:33:04.340Z,100494.13
2022-08-04T20:35:45.927Z,100500.19
2022-08-04T20:38:33.589Z,100500.41
2022-08-04T20:41:02.061Z,100504.53
2022-08-04T20:43:31.373Z,100504.53
2022-08-04T20:45:59.390Z,100506.47
2022-08-04T20:48:33.643Z,100496.59
2022-08-04T20:51:02.098Z,100494.13
2022-08-04T20:53:46.439Z,100499.50
2022-08-04T20:56:19.094Z,100497.81
2022-08-04T20:58:57.433Z,100501.59
2022-08-04T21:04:30.209Z,100500.88
2022-08-04T21:07:03.320Z,100496.69
2022-08-04T21:09:38.199Z,100491.91
2022-08-04T21:15:13.361Z,100497.47
2022-08-04T21:17:59.559Z,100493.16
2022-08-04T21:20:31.372Z,100496.69
2022-08-04T21:23:02.304Z,100492.34
2022-08-04T21:25:32.417Z,100487.97
2022-08-04T21:28:09.759Z,100498.06
2022-08-04T21:30:54.066Z,100494.66
2022-08-04T21:33:44.717Z,100505.56
2022-08-04T21:36:12.537Z,100499.22
2022-08-04T21:38:39.698Z,100501.78
2022-08-04T21:41:09.033Z,100500.28
2022-08-04T21:43:43.130Z,100502.03
2022-08-04T21:46:11.455Z,100509.34
2022-08-04T21:48:39.734Z,100498.63
2022-08-04T21:51:57.963Z,100500.72
2022-08-04T21:54:17.167Z,100496.16
2022-08-04T21:56:50.982Z,100500.72
2022-08-04T21:59:23.960Z,100495.38
2022-08-04T22:02:00.390Z,100497.03
2022-08-04T22:04:28.735Z,100500.50
2022-08-04T22:06:55.924Z,100494.25
2022-08-04T22:09:23.035Z,100501.28
2022-08-04T22:11:51.757Z,100501.41
2022-08-04T22:14:27.471Z,100496.22
2022-08-04T22:16:58.588Z,100499.78
2022-08-04T22:19:40.363Z,100493.50
2022-08-04T22:22:25.217Z,100498.81
2022-08-04T22:24:55.445Z,100498.25
2022-08-04T22:27:47.689Z,100478.59
2022-08-04T22:30:23.268Z,100481.25
2022-08-04T22:32:50.646Z,100492.72
2022-08-04T22:35:36.442Z,100491.16
2022-08-04T22:38:24.004Z,100485.03
2022-08-04T22:41:09.857Z,100482.25
2022-08-04T22:43:37.778Z,100477.81
2022-08-04T22:46:27.531Z,100490.53
2022-08-04T22:48:55.105Z,100483.63
2022-08-04T22:51:23.229Z,100479.94
2022-08-04T22:53:51.679Z,100479.94
2022-08-04T22:56:37.394Z,100478.09
2022-08-04T22:59:09.966Z,100473.56
2022-08-04T23:01:59.693Z,100474.50
2022-08-04T23:04:25.144Z,100478.19
2022-08-04T23:06:54.412Z,100479.88
2022-08-04T23:09:49.159Z,100467.69
2022-08-04T23:12:27.236Z,100464.91
2022-08-04T23:14:57.041Z,100464.22
2022-08-04T23:17:25.036Z,100465.94
2022-08-04T23:19:57.458Z,100460.56
2022-08-04T23:22:42.154Z,100460.56
2022-08-04T23:25:16.155Z,100450.88
2022-08-04T23:27:51.380Z,100449.19
2022-08-04T23:30:24.884Z,100456.16
2022-08-04T23:32:58.151Z,100453.53
2022-08-04T23:35:25.223Z,100444.44
2022-08-04T23:37:57.866Z,100447.97
2022-08-04T23:40:34.297Z,100445.34
2022-08-04T23:43:17.212Z,100437.38
2022-08-04T23:46:07.981Z,100440.09
2022-08-04T23:48:40.210Z,100443.84
2022-08-04T23:51:14.331Z,100430.47
2022-08-04T23:54:02.464Z,100450.06
2022-08-04T23:56:34.170Z,100436.56
2022-08-04T23:59:03.995Z,100440.16
